Covedale, Ohio
Current Conditions -  °F | °C
As of 3:33 PM on Friday 28 Nov 2014 (Local Time) from KI69 Reporting Station
Scattered Clouds Scattered Clouds  
Wind Chill: 32°   Ceiling: Unl
Heat Index: 36°   Visibility: 10mi
Dew Point: 19°   Wind: 5mph
Humidity: 52%   Direction: 220°SW
Pressure: 30.23"   Gusts: NA
Location:  39.1091°N, 84.6112°W
Report Text: KI69 282033Z AUTO 22004KT 10SM SCT120 02/M07 A3023 RMK AO1
Loading
Personal Weather Stations






























Interactive Weather Map New forecast layout! Learn more

10-Day Weather Forecast

Advertisements
Track Severe Weather on mobile